createdAt,value
2017-12-22T00:00:12.027Z,13.3
2017-12-22T00:01:14.458Z,13.1
2017-12-22T00:02:16.949Z,13.3
2017-12-22T00:03:19.404Z,13.4
2017-12-22T00:04:21.903Z,13.3
2017-12-22T00:05:24.350Z,13.2
2017-12-22T00:06:26.795Z,13.4
2017-12-22T00:07:29.166Z,13.7
2017-12-22T00:08:31.608Z,13.6
2017-12-22T00:09:34.039Z,13.9
2017-12-22T00:10:36.426Z,13.9
2017-12-22T00:11:38.920Z,14
2017-12-22T00:12:41.386Z,13.7
2017-12-22T00:13:43.815Z,13.6
2017-12-22T00:14:46.240Z,14.1
2017-12-22T00:15:48.749Z,14.3
2017-12-22T00:16:51.142Z,14.2
2017-12-22T00:17:53.579Z,13.8
2017-12-22T00:18:55.984Z,13.8
2017-12-22T00:19:58.409Z,13.8
2017-12-22T00:21:00.864Z,13.4
2017-12-22T00:22:03.298Z,13.8
2017-12-22T00:23:05.740Z,14.1
2017-12-22T00:24:08.137Z,13.8
2017-12-22T00:25:10.627Z,13.5
2017-12-22T00:26:13.048Z,13.5
2017-12-22T00:27:15.708Z,13.4
2017-12-22T00:28:18.182Z,13.9
2017-12-22T00:29:20.685Z,13.9
2017-12-22T00:30:23.087Z,13.5
2017-12-22T00:31:25.529Z,13.6
2017-12-22T00:32:29.731Z,13.6
2017-12-22T00:33:33.361Z,13.7
2017-12-22T00:34:35.773Z,13.5
2017-12-22T00:35:38.150Z,13.4
2017-12-22T00:36:40.606Z,13.1
2017-12-22T00:37:43.105Z,13.1
2017-12-22T00:38:46.821Z,13.2
2017-12-22T00:39:49.306Z,13
2017-12-22T00:40:51.725Z,12.9
2017-12-22T00:41:54.127Z,13.1
2017-12-22T00:42:56.553Z,13.1
2017-12-22T00:43:58.980Z,13
2017-12-22T00:45:01.372Z,12.7
2017-12-22T00:46:03.767Z,12.5
2017-12-22T00:47:06.552Z,12.4
2017-12-22T00:48:09.001Z,12.4
2017-12-22T00:49:11.466Z,12.3
2017-12-22T00:50:14.149Z,12.3
2017-12-22T00:51:16.538Z,12.3
2017-12-22T00:52:19.351Z,12.2
2017-12-22T00:53:22.103Z,12.3
2017-12-22T00:54:24.520Z,12.3
2017-12-22T00:55:27.021Z,12.3
2017-12-22T00:56:29.479Z,12.2
2017-12-22T00:57:31.911Z,12
2017-12-22T00:58:34.290Z,12.3
2017-12-22T00:59:36.739Z,12.2
2017-12-22T01:00:39.197Z,12.1
2017-12-22T01:01:41.634Z,12.4
2017-12-22T01:02:44.045Z,12.1
2017-12-22T01:03:46.516Z,12.3
2017-12-22T01:04:48.974Z,12.2
2017-12-22T01:05:51.354Z,12.4
2017-12-22T01:06:53.822Z,12.4
2017-12-22T01:07:56.310Z,12.2
2017-12-22T01:08:58.840Z,11.9
2017-12-22T01:10:01.339Z,12.4
2017-12-22T01:11:03.798Z,12
2017-12-22T01:12:06.291Z,12.2
2017-12-22T01:13:08.766Z,12.2
2017-12-22T01:14:11.161Z,11.9
2017-12-22T01:15:13.526Z,12.1
2017-12-22T01:16:15.952Z,12.1
2017-12-22T01:17:18.346Z,12.3
2017-12-22T01:18:20.759Z,12.6
2017-12-22T01:19:23.192Z,12.9
2017-12-22T01:20:25.592Z,12.4
2017-12-22T01:21:28.016Z,12.3
2017-12-22T01:22:30.826Z,12
2017-12-22T01:23:33.345Z,12.1
2017-12-22T01:24:35.795Z,11.9
2017-12-22T01:25:38.237Z,11.9
2017-12-22T01:26:40.747Z,11.8
2017-12-22T01:27:43.228Z,11.9
2017-12-22T01:28:45.629Z,12.1
2017-12-22T01:29:48.127Z,12
2017-12-22T01:30:50.542Z,12.1
2017-12-22T01:31:53.051Z,12.3
2017-12-22T01:32:55.526Z,12.1
2017-12-22T01:33:58.094Z,11.9
2017-12-22T01:35:00.621Z,11.9
2017-12-22T01:36:04.082Z,11.8
2017-12-22T01:37:06.544Z,11.8
2017-12-22T01:38:09.034Z,11.9
2017-12-22T01:39:11.606Z,11.9
2017-12-22T01:40:14.061Z,12.1
2017-12-22T01:41:17.003Z,12
2017-12-22T01:42:20.760Z,12
2017-12-22T01:43:23.362Z,11.8
2017-12-22T01:44:25.805Z,11.9
2017-12-22T01:45:28.302Z,11.8
2017-12-22T01:46:30.739Z,11.8
2017-12-22T01:47:33.459Z,11.9
2017-12-22T01:48:36.186Z,11.9
2017-12-22T01:49:38.666Z,11.7
2017-12-22T01:50:41.101Z,12
2017-12-22T01:51:43.516Z,12.1
2017-12-22T01:52:45.979Z,12.1
2017-12-22T01:53:48.442Z,11.9
2017-12-22T01:54:50.916Z,11.9
2017-12-22T01:55:53.323Z,11.8
2017-12-22T01:56:55.772Z,11.8
2017-12-22T01:57:58.229Z,11.9
2017-12-22T01:59:00.654Z,11.9
2017-12-22T02:00:03.135Z,12
2017-12-22T02:01:05.531Z,11.9
2017-12-22T02:02:07.985Z,11.9
2017-12-22T02:03:10.366Z,12.4
2017-12-22T02:04:12.757Z,12
2017-12-22T02:05:15.416Z,12
2017-12-22T02:06:17.959Z,12.1
2017-12-22T02:07:20.976Z,12.4
2017-12-22T02:08:23.411Z,12.3
2017-12-22T02:09:25.827Z,12
2017-12-22T02:10:28.286Z,12.2
2017-12-22T02:11:30.661Z,12.1
2017-12-22T02:12:33.494Z,12
2017-12-22T02:13:36.366Z,12
2017-12-22T02:14:38.861Z,11.9
2017-12-22T02:15:41.302Z,12.1
2017-12-22T02:16:43.784Z,11.8
2017-12-22T02:17:46.221Z,11.9
2017-12-22T02:18:48.670Z,12
2017-12-22T02:19:51.145Z,11.9
2017-12-22T02:20:53.656Z,12.2
2017-12-22T02:21:56.795Z,11.9
2017-12-22T02:22:59.758Z,11.9
2017-12-22T02:24:02.272Z,11.9
2017-12-22T02:25:04.741Z,11.9
2017-12-22T02:26:07.236Z,11.9
2017-12-22T02:27:09.698Z,11.8
2017-12-22T02:28:12.102Z,11.8
2017-12-22T02:29:14.528Z,11.9
2017-12-22T02:30:16.902Z,11.9
2017-12-22T02:31:19.455Z,11.8
2017-12-22T02:32:21.837Z,11.7
2017-12-22T02:33:24.260Z,11.9
2017-12-22T02:34:26.730Z,11.9
2017-12-22T02:35:29.164Z,11.9
2017-12-22T02:36:31.618Z,11.8
2017-12-22T02:37:34.013Z,11.9
2017-12-22T02:38:36.427Z,11.8
2017-12-22T02:39:38.937Z,11.9
2017-12-22T02:40:41.409Z,11.8
2017-12-22T02:41:43.838Z,11.7
2017-12-22T02:42:46.307Z,11.8
2017-12-22T02:43:48.833Z,11.7
2017-12-22T02:44:51.226Z,11.7
2017-12-22T02:45:53.697Z,11.6
2017-12-22T02:46:56.103Z,11.8
2017-12-22T02:47:58.560Z,11.5
2017-12-22T02:49:01.023Z,11.5
2017-12-22T02:50:03.515Z,11.6
2017-12-22T02:51:05.987Z,11.6
2017-12-22T02:52:08.758Z,11.9
2017-12-22T02:53:11.156Z,11.9
2017-12-22T02:54:13.591Z,11.7
2017-12-22T02:55:16.027Z,11.9
2017-12-22T02:56:18.429Z,11.8
2017-12-22T02:57:21.111Z,11.9
2017-12-22T02:58:23.495Z,11.8
2017-12-22T02:59:25.953Z,11.7
2017-12-22T03:00:28.331Z,11.6
2017-12-22T03:01:30.758Z,11.6
2017-12-22T03:02:33.229Z,11.6
2017-12-22T03:03:35.615Z,11.6
2017-12-22T03:04:38.048Z,11.4
2017-12-22T03:05:40.473Z,11.4
2017-12-22T03:06:42.909Z,11.6
2017-12-22T03:07:45.412Z,11.5
2017-12-22T03:08:47.858Z,11.4
2017-12-22T03:09:50.360Z,11.4
2017-12-22T03:10:52.769Z,11.5
2017-12-22T03:11:55.467Z,11.4
2017-12-22T03:12:57.963Z,11.4
2017-12-22T03:14:00.387Z,11.4
2017-12-22T03:15:02.916Z,11.4
2017-12-22T03:16:05.299Z,11.3
2017-12-22T03:17:07.788Z,11.4
2017-12-22T03:18:10.337Z,11.3
2017-12-22T03:19:12.858Z,11.2
2017-12-22T03:20:15.339Z,11.2
2017-12-22T03:21:17.885Z,11.3
2017-12-22T03:22:20.313Z,11.2
2017-12-22T03:23:22.806Z,11.2
2017-12-22T03:24:25.275Z,11.1
2017-12-22T03:25:27.652Z,11.1
2017-12-22T03:26:30.186Z,11.1
2017-12-22T03:27:32.581Z,11.3
2017-12-22T03:28:35.005Z,11.4
2017-12-22T03:29:37.485Z,11.2
2017-12-22T03:30:39.835Z,11.1
2017-12-22T03:31:42.287Z,11.1
2017-12-22T03:32:44.746Z,11.2
2017-12-22T03:33:47.286Z,11.2
2017-12-22T03:34:49.722Z,11.2
2017-12-22T03:35:52.097Z,11.2
2017-12-22T03:36:54.478Z,11.2
2017-12-22T03:37:56.904Z,11.2
2017-12-22T03:38:59.614Z,11.2
2017-12-22T03:40:02.125Z,11.1
2017-12-22T03:41:04.588Z,11.1
2017-12-22T03:42:07.165Z,11.2
2017-12-22T03:43:09.584Z,11.2
2017-12-22T03:44:12.075Z,11.1
2017-12-22T03:45:14.479Z,11.2
2017-12-22T03:46:16.969Z,11.2
2017-12-22T03:47:19.385Z,11.1
2017-12-22T03:48:21.778Z,11.1
2017-12-22T03:49:24.230Z,11.2
2017-12-22T03:50:26.613Z,11.3
2017-12-22T03:51:29.587Z,11.1
2017-12-22T03:52:32.714Z,11.2
2017-12-22T03:53:35.119Z,11.1
2017-12-22T03:54:37.592Z,11.1
2017-12-22T03:55:40.021Z,11.1
2017-12-22T03:56:42.487Z,11.1
2017-12-22T03:57:44.991Z,10.9
2017-12-22T03:58:47.477Z,11.1
2017-12-22T03:59:50.015Z,11.1
2017-12-22T04:00:52.497Z,10.9
2017-12-22T04:01:54.909Z,11
2017-12-22T04:02:57.341Z,10.9
2017-12-22T04:03:59.748Z,11
2017-12-22T04:05:02.239Z,10.9
2017-12-22T04:06:04.662Z,10.9
2017-12-22T04:07:07.074Z,11
2017-12-22T04:08:09.525Z,11.1
2017-12-22T04:09:11.967Z,11.1
2017-12-22T04:10:14.546Z,10.9
2017-12-22T04:11:17.288Z,10.9
2017-12-22T04:12:19.961Z,11.1
2017-12-22T04:13:22.654Z,11.1
2017-12-22T04:14:25.435Z,11.1
2017-12-22T04:15:27.880Z,11.2
2017-12-22T04:16:30.687Z,11.2
2017-12-22T04:17:33.450Z,11.2
2017-12-22T04:18:35.901Z,11.1
2017-12-22T04:19:38.349Z,11.1
2017-12-22T04:20:40.772Z,10.8
2017-12-22T04:21:43.552Z,10.9
2017-12-22T04:22:46.095Z,11.1
2017-12-22T04:23:48.531Z,11.1
2017-12-22T04:24:50.992Z,11.2
2017-12-22T04:25:53.481Z,11.2
2017-12-22T04:26:55.886Z,11.1
2017-12-22T04:27:58.303Z,11.1
2017-12-22T04:29:00.952Z,11.2
2017-12-22T04:30:03.381Z,11.1
2017-12-22T04:31:05.778Z,11.1
2017-12-22T04:32:08.251Z,11.1
2017-12-22T04:33:10.672Z,11
2017-12-22T04:34:13.054Z,11.1
2017-12-22T04:35:15.471Z,11.2
2017-12-22T04:36:17.855Z,11.1
2017-12-22T04:37:20.315Z,11.1
2017-12-22T04:38:22.716Z,11.1
2017-12-22T04:39:25.160Z,10.9
2017-12-22T04:40:27.557Z,11
2017-12-22T04:41:30.056Z,11
2017-12-22T04:42:32.438Z,11
2017-12-22T04:43:34.962Z,11
2017-12-22T04:44:37.330Z,10.9
2017-12-22T04:45:39.765Z,11
2017-12-22T04:46:42.180Z,11
2017-12-22T04:47:44.551Z,11
2017-12-22T04:48:47.005Z,10.8
2017-12-22T04:49:49.445Z,10.9
2017-12-22T04:50:51.849Z,10.9
2017-12-22T04:51:54.269Z,10.9
2017-12-22T04:52:56.677Z,10.8
2017-12-22T04:53:59.050Z,10.9
2017-12-22T04:55:01.487Z,10.8
2017-12-22T04:56:03.894Z,10.8
2017-12-22T04:57:06.411Z,10.8
2017-12-22T04:58:09.065Z,10.8
2017-12-22T04:59:11.631Z,10.8
2017-12-22T05:00:14.064Z,10.8
2017-12-22T05:01:16.607Z,10.8
2017-12-22T05:02:19.160Z,10.7
2017-12-22T05:03:21.586Z,10.7
2017-12-22T05:04:24.006Z,10.7
2017-12-22T05:05:26.431Z,10.8
2017-12-22T05:06:28.945Z,10.9
2017-12-22T05:07:31.370Z,10.8
2017-12-22T05:08:33.741Z,10.8
2017-12-22T05:09:36.183Z,10.9
2017-12-22T05:10:38.639Z,10.9
2017-12-22T05:11:41.379Z,10.7
2017-12-22T05:12:44.604Z,10.7
2017-12-22T05:13:46.995Z,10.9
2017-12-22T05:14:49.514Z,10.8
2017-12-22T05:15:51.956Z,10.7
2017-12-22T05:16:54.303Z,10.9
2017-12-22T05:17:56.939Z,10.8
2017-12-22T05:18:59.406Z,10.6
2017-12-22T05:20:01.840Z,10.8
2017-12-22T05:21:04.283Z,10.9
2017-12-22T05:22:06.683Z,10.7
2017-12-22T05:23:09.150Z,10.4
2017-12-22T05:24:11.584Z,10.6
2017-12-22T05:25:14.079Z,10.6
2017-12-22T05:26:16.516Z,10.7
2017-12-22T05:27:18.985Z,10.6
2017-12-22T05:28:21.410Z,10.5
2017-12-22T05:29:23.836Z,10.6
2017-12-22T05:30:26.217Z,10.5
2017-12-22T05:31:28.737Z,10.8
2017-12-22T05:32:31.209Z,10.6
2017-12-22T05:33:33.651Z,10.6
2017-12-22T05:34:36.058Z,10.5
2017-12-22T05:35:38.672Z,10.5
2017-12-22T05:36:41.531Z,10.6
2017-12-22T05:37:43.945Z,10.6
2017-12-22T05:38:46.401Z,10.6
2017-12-22T05:39:48.901Z,10.6
2017-12-22T05:40:51.282Z,10.4
2017-12-22T05:41:53.642Z,10.4
2017-12-22T05:42:56.116Z,10.4
2017-12-22T05:43:58.662Z,10.4
2017-12-22T05:45:01.076Z,10.3
2017-12-22T05:46:03.484Z,10.6
2017-12-22T05:47:05.954Z,10.4
2017-12-22T05:48:08.454Z,10.4
2017-12-22T05:49:10.851Z,10.5
2017-12-22T05:50:13.279Z,10.4
2017-12-22T05:51:16.137Z,10.4
2017-12-22T05:52:19.191Z,10.3
2017-12-22T05:53:21.629Z,10.4
2017-12-22T05:54:24.090Z,10.4
2017-12-22T05:55:26.546Z,10.4
2017-12-22T05:56:28.971Z,10.4
2017-12-22T05:57:31.439Z,10.5
2017-12-22T05:58:34.027Z,10.4
2017-12-22T05:59:36.799Z,10.4
2017-12-22T06:00:39.602Z,10.4
2017-12-22T06:01:42.388Z,10.5
2017-12-22T06:02:44.815Z,10.5
2017-12-22T06:03:47.223Z,10.4
2017-12-22T06:04:49.915Z,10.4
2017-12-22T06:05:52.295Z,10.4
2017-12-22T06:06:54.695Z,10.4
2017-12-22T06:07:57.127Z,10.4
2017-12-22T06:08:59.665Z,10.4
2017-12-22T06:10:02.122Z,10.4
2017-12-22T06:11:04.502Z,10.4
2017-12-22T06:12:06.920Z,10.4
2017-12-22T06:13:09.322Z,10.4
2017-12-22T06:14:11.677Z,10.4
2017-12-22T06:15:14.059Z,10.5
2017-12-22T06:16:16.503Z,10.4
2017-12-22T06:17:18.979Z,10.5
2017-12-22T06:18:21.380Z,10.4
2017-12-22T06:19:23.797Z,10.5
2017-12-22T06:20:26.247Z,10.4
2017-12-22T06:21:28.775Z,10.6
2017-12-22T06:22:31.208Z,10.5
2017-12-22T06:23:33.597Z,10.4
2017-12-22T06:24:36.023Z,10.4
2017-12-22T06:25:38.434Z,10.6
2017-12-22T06:26:40.905Z,10.5
2017-12-22T06:27:43.835Z,10.7
2017-12-22T06:28:48.097Z,10.6
2017-12-22T06:29:50.599Z,10.7
2017-12-22T06:30:53.130Z,10.5
2017-12-22T06:31:55.584Z,10.5
2017-12-22T06:32:57.956Z,10.5
2017-12-22T06:34:00.375Z,10.5
2017-12-22T06:35:02.859Z,10.4
2017-12-22T06:36:05.292Z,10.3
2017-12-22T06:37:07.922Z,10.4
2017-12-22T06:38:10.469Z,10.3
2017-12-22T06:39:12.983Z,10.2
2017-12-22T06:40:15.494Z,10.3
2017-12-22T06:41:18.010Z,10.3
2017-12-22T06:42:20.481Z,10.3
2017-12-22T06:43:22.919Z,10.3
2017-12-22T06:44:25.379Z,10.3
2017-12-22T06:45:27.834Z,10.3
2017-12-22T06:46:30.395Z,10.2
2017-12-22T06:47:32.848Z,10.2
2017-12-22T06:48:35.269Z,10.2
2017-12-22T06:49:37.757Z,10.1
2017-12-22T06:50:40.247Z,10.3
2017-12-22T06:51:42.712Z,10.3
2017-12-22T06:52:45.518Z,10.1
2017-12-22T06:53:48.065Z,10.1
2017-12-22T06:54:50.490Z,10.1
2017-12-22T06:55:52.982Z,10.2
2017-12-22T06:56:55.495Z,10.1
2017-12-22T06:57:57.959Z,10
2017-12-22T06:59:00.514Z,10
2017-12-22T07:00:03.042Z,9.9
2017-12-22T07:01:05.456Z,9.9
2017-12-22T07:02:07.940Z,10
2017-12-22T07:03:10.520Z,10
2017-12-22T07:04:12.973Z,10
2017-12-22T07:05:15.434Z,10
2017-12-22T07:06:17.856Z,10.1
2017-12-22T07:07:20.332Z,10
2017-12-22T07:08:22.690Z,10.1
2017-12-22T07:09:25.122Z,9.8
2017-12-22T07:10:27.557Z,9.9
2017-12-22T07:11:30.033Z,10
2017-12-22T07:12:32.720Z,10
2017-12-22T07:13:35.574Z,10
2017-12-22T07:14:37.987Z,10
2017-12-22T07:15:40.503Z,10
2017-12-22T07:16:42.928Z,10
2017-12-22T07:17:45.727Z,9.8
2017-12-22T07:18:48.568Z,9.9
2017-12-22T07:19:50.936Z,9.9
2017-12-22T07:20:55.233Z,9.9
2017-12-22T07:21:57.836Z,9.9
2017-12-22T07:23:00.296Z,10.1
2017-12-22T07:24:03.064Z,9.9
2017-12-22T07:25:07.755Z,10
2017-12-22T07:26:12.778Z,9.9
2017-12-22T07:27:16.260Z,9.9
2017-12-22T07:28:18.704Z,9.9
2017-12-22T07:29:21.249Z,9.9
2017-12-22T07:30:24.092Z,9.8
2017-12-22T07:31:28.497Z,9.7
2017-12-22T07:32:31.255Z,9.6
2017-12-22T07:33:33.750Z,9.7
2017-12-22T07:34:37.026Z,9.6
2017-12-22T07:35:39.671Z,10.8
2017-12-22T07:36:43.466Z,11.7
2017-12-22T07:37:46.940Z,12.3
2017-12-22T07:38:49.393Z,12.7
2017-12-22T07:39:51.823Z,13
2017-12-22T07:40:54.267Z,13.3
2017-12-22T07:41:56.775Z,13.4
2017-12-22T07:42:59.317Z,13.5
2017-12-22T07:44:01.940Z,13.7
2017-12-22T07:45:04.409Z,13.9
2017-12-22T07:46:06.912Z,14.1
2017-12-22T07:47:09.488Z,14.2
2017-12-22T07:48:11.905Z,14.5
2017-12-22T07:49:16.460Z,14.6
2017-12-22T07:50:26.596Z,14.5
2017-12-22T07:51:35.251Z,14.8
2017-12-22T07:52:37.924Z,14.9
2017-12-22T07:53:44.410Z,14.9
2017-12-22T07:54:51.058Z,14.9
2017-12-22T07:55:59.720Z,15
2017-12-22T07:57:07.087Z,14.9
2017-12-22T07:58:12.321Z,14.9
2017-12-22T07:59:14.824Z,15
2017-12-22T08:00:17.349Z,15.2
2017-12-22T08:01:22.160Z,15.4
2017-12-22T08:02:24.793Z,15.7
2017-12-22T08:03:27.240Z,15.9
2017-12-22T08:04:29.770Z,16.1
2017-12-22T08:05:32.227Z,16.2
2017-12-22T08:06:34.669Z,16.2
2017-12-22T08:07:37.115Z,16.3
2017-12-22T08:08:39.828Z,16.4
2017-12-22T08:09:42.406Z,16.5
2017-12-22T08:10:44.896Z,16.6
2017-12-22T08:11:47.506Z,16.7
2017-12-22T08:12:49.966Z,16.7
2017-12-22T08:13:52.430Z,16.8
2017-12-22T08:14:54.940Z,16.8
2017-12-22T08:15:57.528Z,16.8
2017-12-22T08:17:00.034Z,16.8
2017-12-22T08:18:02.621Z,16.9
2017-12-22T08:19:05.136Z,17
2017-12-22T08:20:07.630Z,17.1
2017-12-22T08:21:10.269Z,17.2
2017-12-22T08:22:13.030Z,17.5
2017-12-22T08:23:15.719Z,17.6
2017-12-22T08:24:18.221Z,17.4
2017-12-22T08:25:20.781Z,17.5
2017-12-22T08:26:23.534Z,17.5
2017-12-22T08:27:26.037Z,17.4
2017-12-22T08:28:28.635Z,17.4
2017-12-22T08:29:31.123Z,17.5
2017-12-22T08:30:33.590Z,17.5
2017-12-22T08:31:36.274Z,17.5
2017-12-22T08:32:38.938Z,17.4
2017-12-22T08:33:41.553Z,17.4
2017-12-22T08:34:44.098Z,17.4
2017-12-22T08:35:46.658Z,17.4
2017-12-22T08:36:49.244Z,17.3
2017-12-22T08:37:51.777Z,17.3
2017-12-22T08:38:54.327Z,17.3
2017-12-22T08:39:56.876Z,17.2
2017-12-22T08:40:59.371Z,17.2
2017-12-22T08:42:01.972Z,17.2
2017-12-22T08:43:04.493Z,17.2
2017-12-22T08:44:07.048Z,17.2
2017-12-22T08:45:11.307Z,17.1
2017-12-22T08:46:14.656Z,17.1
2017-12-22T08:47:17.129Z,16.9
2017-12-22T08:48:19.821Z,17
2017-12-22T08:49:22.419Z,17.1
2017-12-22T08:50:25.004Z,17.1
2017-12-22T08:51:27.733Z,17
2017-12-22T08:52:30.562Z,17
2017-12-22T08:53:33.144Z,16.9
2017-12-22T08:54:35.709Z,17
2017-12-22T08:55:38.519Z,17
2017-12-22T08:56:41.291Z,17
2017-12-22T08:57:44.135Z,17
2017-12-22T08:58:46.592Z,17
2017-12-22T08:59:49.151Z,16.9
2017-12-22T09:00:51.814Z,16.8
2017-12-22T09:01:54.492Z,16.8
2017-12-22T09:02:57.140Z,16.7
2017-12-22T09:03:59.870Z,16.7
2017-12-22T09:05:02.526Z,16.7
2017-12-22T09:06:05.124Z,16.7
2017-12-22T09:07:07.690Z,16.7
2017-12-22T09:08:10.514Z,16.7
2017-12-22T09:09:13.068Z,16.7
2017-12-22T09:10:15.598Z,16.7
2017-12-22T09:11:18.269Z,16.6
2017-12-22T09:12:21.015Z,16.7
2017-12-22T09:13:23.826Z,16.7
2017-12-22T09:14:26.364Z,16.7
2017-12-22T09:15:28.987Z,16.7
2017-12-22T09:16:31.729Z,16.6
2017-12-22T09:17:35.158Z,16.7
2017-12-22T09:18:37.815Z,16.7
2017-12-22T09:19:40.525Z,16.7
2017-12-22T09:20:43.195Z,16.6
2017-12-22T09:21:45.846Z,16.7
2017-12-22T09:22:48.355Z,16.7
2017-12-22T09:23:51.000Z,16.7
2017-12-22T09:24:53.746Z,16.8
2017-12-22T09:25:56.390Z,16.8
2017-12-22T09:26:58.926Z,16.8
2017-12-22T09:28:01.894Z,16.7
2017-12-22T09:29:04.728Z,16.7
2017-12-22T09:30:07.465Z,16.8
2017-12-22T09:31:10.265Z,16.8
2017-12-22T09:32:13.521Z,16.9
2017-12-22T09:33:16.169Z,16.9
2017-12-22T09:34:18.594Z,16.9
2017-12-22T09:35:21.296Z,16.9
2017-12-22T09:36:23.819Z,17
2017-12-22T09:37:26.432Z,17
2017-12-22T09:38:29.079Z,17
2017-12-22T09:39:31.741Z,17
2017-12-22T09:40:34.290Z,17
2017-12-22T09:41:36.802Z,17
2017-12-22T09:42:40.500Z,17
2017-12-22T09:43:43.126Z,17
2017-12-22T09:44:45.638Z,17
2017-12-22T09:45:48.120Z,17.1
2017-12-22T09:46:51.173Z,17.1
2017-12-22T09:47:54.102Z,17.1
2017-12-22T09:48:57.878Z,17.2
2017-12-22T09:50:00.448Z,17.3
2017-12-22T09:51:03.351Z,17.3
2017-12-22T09:52:05.932Z,17.3
2017-12-22T09:53:08.431Z,17.2
2017-12-22T09:54:11.032Z,17.2
2017-12-22T09:55:13.610Z,17.2
2017-12-22T09:56:20.826Z,17.2
2017-12-22T09:57:23.903Z,17.1
2017-12-22T09:58:26.771Z,17.3
2017-12-22T09:59:29.361Z,17.3
2017-12-22T10:00:35.807Z,17.2
2017-12-22T10:01:38.538Z,17.3
2017-12-22T10:02:42.227Z,17.3
2017-12-22T10:03:44.713Z,17.4
2017-12-22T10:04:47.342Z,17.5
2017-12-22T10:05:50.022Z,17.4
2017-12-22T10:06:52.636Z,17.4
2017-12-22T10:07:55.196Z,17.4
2017-12-22T10:08:57.904Z,17.4
2017-12-22T10:10:01.184Z,17.5
2017-12-22T10:11:03.733Z,17.8
2017-12-22T10:12:06.397Z,17.7
2017-12-22T10:13:09.138Z,17.6
2017-12-22T10:14:11.880Z,17.5
2017-12-22T10:15:14.461Z,17.5
2017-12-22T10:16:17.099Z,17.4
2017-12-22T10:17:19.666Z,17.5
2017-12-22T10:18:22.278Z,17.5
2017-12-22T10:19:24.850Z,17.6
2017-12-22T10:20:27.608Z,17.5
2017-12-22T10:21:30.365Z,17.4
2017-12-22T10:22:32.951Z,17.5
2017-12-22T10:23:35.430Z,17.6
2017-12-22T10:24:37.982Z,17.7
2017-12-22T10:25:41.126Z,17.6
2017-12-22T10:26:43.679Z,17.7
2017-12-22T10:27:46.414Z,17.6
2017-12-22T10:28:52.109Z,17.7
2017-12-22T10:29:54.791Z,17.7
2017-12-22T10:30:58.567Z,17.7
2017-12-22T10:32:01.521Z,17.7
2017-12-22T10:33:04.723Z,17.6
2017-12-22T10:34:07.387Z,17.6
2017-12-22T10:35:10.190Z,17.6
2017-12-22T10:36:13.038Z,17.5
2017-12-22T10:37:16.177Z,17.6
2017-12-22T10:38:18.862Z,17.7
2017-12-22T10:39:21.528Z,17.7
2017-12-22T10:40:24.989Z,17.7
2017-12-22T10:41:27.716Z,17.6
2017-12-22T10:42:30.526Z,17.6
2017-12-22T10:43:33.085Z,17.6
2017-12-22T10:44:35.610Z,17.7
2017-12-22T10:45:38.143Z,17.7
2017-12-22T10:46:41.777Z,17.7
2017-12-22T10:47:44.536Z,17.8
2017-12-22T10:48:47.128Z,17.8
2017-12-22T10:49:49.856Z,17.8
2017-12-22T10:50:52.487Z,17.6
2017-12-22T10:51:57.818Z,17.7
2017-12-22T10:53:00.937Z,17.7
2017-12-22T10:54:03.531Z,17.7
2017-12-22T10:55:06.153Z,17.7
2017-12-22T10:56:08.843Z,17.7
2017-12-22T10:57:12.369Z,17.7
2017-12-22T10:58:15.307Z,17.7
2017-12-22T10:59:18.437Z,17.7
2017-12-22T11:00:21.169Z,17.7
2017-12-22T11:01:23.922Z,17.8
2017-12-22T11:02:26.523Z,17.8
2017-12-22T11:03:29.293Z,17.7
2017-12-22T11:04:31.898Z,17.8
2017-12-22T11:05:35.946Z,17.7
2017-12-22T11:06:38.655Z,17.7
2017-12-22T11:07:43.363Z,17.8
2017-12-22T11:08:46.370Z,17.8
2017-12-22T11:09:49.126Z,17.8
2017-12-22T11:10:52.001Z,17.9
2017-12-22T11:11:54.572Z,17.9
2017-12-22T11:12:57.126Z,17.7
2017-12-22T11:13:59.981Z,17.9
2017-12-22T11:15:02.840Z,18
2017-12-22T11:16:05.439Z,18.1
2017-12-22T11:17:10.994Z,18.2
2017-12-22T11:18:13.757Z,18.2
2017-12-22T11:19:16.417Z,18.1
2017-12-22T11:20:19.698Z,18.1
2017-12-22T11:21:22.388Z,18.1
2017-12-22T11:22:24.968Z,18.1
2017-12-22T11:23:27.593Z,18.1
2017-12-22T11:24:32.643Z,18.1
2017-12-22T11:25:37.273Z,18.1
2017-12-22T11:26:40.176Z,18.1
2017-12-22T11:27:42.826Z,17.9
2017-12-22T11:28:45.909Z,18
2017-12-22T11:29:48.658Z,18
2017-12-22T11:30:51.383Z,18
2017-12-22T11:31:53.915Z,18
2017-12-22T11:32:56.709Z,18
2017-12-22T11:33:59.400Z,18.1
2017-12-22T11:35:03.167Z,18.2
2017-12-22T11:36:05.902Z,18.2
2017-12-22T11:37:10.029Z,18.2
2017-12-22T11:38:14.896Z,18.1
2017-12-22T11:39:17.564Z,18.1
2017-12-22T11:40:20.270Z,18
2017-12-22T11:41:23.068Z,18
2017-12-22T11:42:25.657Z,18
2017-12-22T11:43:28.255Z,18.2
2017-12-22T11:44:30.852Z,18.2
2017-12-22T11:45:33.519Z,18
2017-12-22T11:46:37.930Z,18.1
2017-12-22T11:47:41.351Z,18.1
2017-12-22T11:48:43.986Z,18.1
2017-12-22T11:49:46.606Z,18.2
2017-12-22T11:50:49.296Z,18.2
2017-12-22T11:51:51.962Z,18.2
2017-12-22T11:52:54.630Z,18.2
2017-12-22T11:54:00.258Z,18.1
2017-12-22T11:55:03.324Z,18.2
2017-12-22T11:56:05.976Z,18.2
2017-12-22T11:57:08.706Z,18.2
2017-12-22T11:58:11.522Z,18.2
2017-12-22T11:59:14.244Z,18.2
2017-12-22T12:00:16.876Z,18.3
2017-12-22T12:01:19.536Z,18.3
2017-12-22T12:02:22.318Z,18.3
2017-12-22T12:03:24.988Z,18.3
2017-12-22T12:04:28.219Z,18.4
2017-12-22T12:05:31.090Z,18.4
2017-12-22T12:06:33.939Z,18.4
2017-12-22T12:07:36.540Z,18.3
2017-12-22T12:08:39.234Z,18.4
2017-12-22T12:09:42.098Z,18.4
2017-12-22T12:10:44.676Z,18.4
2017-12-22T12:11:47.259Z,18.2
2017-12-22T12:12:50.109Z,18.4
2017-12-22T12:13:53.532Z,18.4
2017-12-22T12:14:56.895Z,18.4
2017-12-22T12:16:00.548Z,18.4
2017-12-22T12:17:03.390Z,18.3
2017-12-22T12:18:06.267Z,18.4
2017-12-22T12:19:08.825Z,18.3
2017-12-22T12:20:11.798Z,18.3
2017-12-22T12:21:14.755Z,18.3
2017-12-22T12:22:17.315Z,18.4
2017-12-22T12:23:19.836Z,18.4
2017-12-22T12:24:22.541Z,18.4
2017-12-22T12:25:25.184Z,18.3
2017-12-22T12:26:28.003Z,18.4
2017-12-22T12:27:30.885Z,18.4
2017-12-22T12:28:33.391Z,18.4
2017-12-22T12:29:35.895Z,18.4
2017-12-22T12:30:38.483Z,18.3
2017-12-22T12:31:41.561Z,18.3
2017-12-22T12:32:44.223Z,18.3
2017-12-22T12:33:50.946Z,18.3
2017-12-22T12:34:54.250Z,18.3
2017-12-22T12:35:57.032Z,18.3
2017-12-22T12:37:00.263Z,18.3
2017-12-22T12:38:23.531Z,18.4
2017-12-22T12:39:26.468Z,18.4
2017-12-22T12:40:35.619Z,18.3
